General Aviation Weather

Text Reports

Enter one or more of the following location identifiers separated by a space:

Zip Code, Four-Character ICAO or Three-Character IATA airport codes.

METAR - Aviation Routine Weather Report
KFKS - Frankfort, Michigan
Updated at 11:16 PM GMT on September 16, 2014 (7:16 PM EDT):
METAR KFKS 162316Z AUTO 21006KT 10SM CLR 15/07 A3006 RMK AO2 T01510070
TAF - Terminal Area Forecast
KFKS - Frankfort, Michigan
Updated at 11:16 PM GMT on September 16, 2014 (7:16 PM EDT):
No TAF is currently available for this location.
Decoded:
No decoded TAF is available.
PIREP - Pilot Weather Report
KFKS - Frankfort, Michigan
Updated at 11:16 PM GMT on September 16, 2014 (7:16 PM EDT):
No PIREP is currently available for this location.
AIRMET - Airmens Meteorological Information
KFKS - Frankfort, Michigan
Updated at 11:16 PM GMT on September 16, 2014 (7:16 PM EDT):
No AIRMET is currently available for this location.
SIGMET - Significant Meteorological Information
KFKS - Frankfort, Michigan
Updated at 11:16 PM GMT on September 16, 2014 (7:16 PM EDT):
No SIGMET is currently available for this location.
NOTAM - Notice to Airmen
KFKS - Frankfort, Michigan
Updated at 11:16 PM GMT on September 16, 2014 (7:16 PM EDT):
No NOTAM is currently available for this location.
Forecast Area
KFKS - Frankfort, Michigan
Updated at 11:16 PM GMT on September 16, 2014 (7:16 PM EDT):
No NOTAM is currently available for this location.
Aviation Weather Maps